Time;durP1;ratioP1;P1;durP2;ratioP2;P2;SDS_P1;SDS_P2;PMS_P1;PMS_P2;Temp;Humidity;BMP_temperature;BMP_pressure;BME280_temperature;BME280_humidity;BME280_pressure;Samples;Min_cycle;Max_cycle;Signal;HPM_P1;HPM_P2
2023/10/13 00:01:24;;;;;;;6.60;5.10;;;;;;;20.39;63.33;97226.13;4908542;28;20252;-80
2023/10/13 00:03:54;;;;;;;8.65;6.07;;;;;;;20.36;63.23;97221.47;4911828;28;20204;-80
2023/10/13 00:06:19;;;;;;;6.60;5.07;;;;;;;20.33;63.37;97228.13;4929688;28;20665;-80
2023/10/13 00:08:45;;;;;;;8.25;5.50;;;;;;;20.31;63.10;97227.66;4913758;28;20196;-80
2023/10/13 00:11:15;;;;;;;8.55;5.68;;;;;;;20.32;63.45;97217.84;4895819;28;20608;-80
2023/10/13 00:13:42;;;;;;;7.20;5.15;;;;;;;20.30;63.40;97212.09;4928821;28;20599;-80
2023/10/13 00:16:17;;;;;;;10.05;6.13;;;;;;;20.36;63.34;97216.94;4925188;28;20627;-79
2023/10/13 00:18:43;;;;;;;9.75;5.72;;;;;;;20.36;63.00;97219.59;4922058;28;20856;-78
2023/10/13 00:21:13;;;;;;;8.50;5.78;;;;;;;20.40;62.85;97211.81;4921596;28;20185;-78
2023/10/13 00:23:52;;;;;;;11.27;5.93;;;;;;;20.50;62.58;97213.41;4911952;28;20650;-79
2023/10/13 00:26:28;;;;;;;9.98;5.80;;;;;;;20.48;62.22;97205.00;4926819;28;20440;-78
2023/10/13 00:29:16;;;;;;;9.07;6.10;;;;;;;20.44;62.22;97206.69;4902564;28;20236;-79
2023/10/13 00:31:42;;;;;;;13.07;6.10;;;;;;;20.36;62.68;97214.31;4892083;28;20204;-78
2023/10/13 00:34:15;;;;;;;12.07;6.00;;;;;;;20.33;62.42;97201.69;4908705;28;20442;-78
2023/10/13 00:39:28;;;;;;;9.30;6.00;;;;;;;20.22;62.34;97195.13;4920428;28;20283;-78
2023/10/13 00:41:59;;;;;;;9.13;5.35;;;;;;;20.14;62.25;97203.81;4921950;28;20170;-78
2023/10/13 00:44:37;;;;;;;8.35;5.53;;;;;;;20.10;62.67;97202.84;4925433;28;20166;-78
2023/10/13 00:47:03;;;;;;;8.13;6.07;;;;;;;20.15;62.41;97210.63;4887960;28;20187;-79
2023/10/13 00:49:30;;;;;;;13.65;5.60;;;;;;;20.09;62.40;97198.66;4927871;28;20647;-79
2023/10/13 00:51:56;;;;;;;9.70;5.60;;;;;;;20.04;62.15;97194.28;4926915;28;20678;-79
2023/10/13 00:54:26;;;;;;;9.48;5.45;;;;;;;20.04;61.94;97193.50;4914058;28;20148;-78
2023/10/13 00:57:03;;;;;;;9.13;5.90;;;;;;;20.00;62.62;97186.19;4910755;28;20193;-79
2023/10/13 00:59:33;;;;;;;8.25;5.57;;;;;;;19.97;62.05;97189.44;4923816;28;20699;-79
2023/10/13 01:02:25;;;;;;;7.78;5.45;;;;;;;19.94;62.38;97178.69;4919687;28;20669;-78
2023/10/13 01:04:46;;;;;;;10.00;5.32;;;;;;;19.88;62.82;97170.13;4920122;28;20267;-78
2023/10/13 01:07:22;;;;;;;9.30;5.78;;;;;;;19.90;62.75;97167.97;4920927;28;20145;-78
2023/10/13 01:09:47;;;;;;;8.80;5.55;;;;;;;19.96;62.18;97168.59;4923857;28;20680;-79
2023/10/13 01:12:14;;;;;;;6.95;6.25;;;;;;;19.91;62.11;97176.66;4894620;28;20339;-79
2023/10/13 01:14:40;;;;;;;8.88;5.72;;;;;;;19.88;62.64;97169.34;4917147;28;20113;-79
2023/10/13 01:17:05;;;;;;;9.43;5.50;;;;;;;19.91;62.47;97169.53;4929140;28;20198;-79
2023/10/13 01:19:38;;;;;;;8.88;5.90;;;;;;;19.97;62.04;97168.28;4943885;28;20060;-79
2023/10/13 01:22:06;;;;;;;7.47;5.40;;;;;;;19.84;62.53;97161.25;4892293;28;20193;-79
2023/10/13 01:24:34;;;;;;;7.75;6.82;;;;;;;19.86;62.22;97167.03;4895135;28;20288;-79
2023/10/13 01:27:20;;;;;;;10.32;5.88;;;;;;;19.73;62.27;97155.41;4927920;28;20265;-80
2023/10/13 01:29:50;;;;;;;10.93;6.75;;;;;;;19.77;62.55;97159.03;4912984;28;20146;-80
2023/10/13 01:32:21;;;;;;;9.05;5.97;;;;;;;19.76;62.51;97156.72;4910793;28;20185;-80
2023/10/13 01:34:47;;;;;;;10.18;5.70;;;;;;;19.67;62.29;97146.06;4899348;28;20195;-80
2023/10/13 01:37:13;;;;;;;11.65;5.70;;;;;;;19.64;61.97;97152.75;4928087;28;20624;-79
2023/10/13 01:39:38;;;;;;;6.50;5.00;;;;;;;19.65;62.56;97151.66;4926801;28;20184;-80
2023/10/13 01:42:06;;;;;;;11.20;5.68;;;;;;;19.59;62.42;97150.22;4895029;28;20208;-80
2023/10/13 01:44:32;;;;;;;9.57;5.38;;;;;;;19.62;62.37;97152.28;4937167;28;20222;-80
2023/10/13 01:47:07;;;;;;;5.90;5.07;;;;;;;19.57;62.23;97151.59;4924164;28;20298;-80
2023/10/13 01:49:42;;;;;;;;;;;;;;;19.71;62.26;97162.88;4913892;28;20300;-80
2023/10/13 01:52:11;;;;;;;8.97;5.40;;;;;;;19.58;61.80;97161.09;4909960;28;20128;-80
2023/10/13 01:54:40;;;;;;;8.18;5.63;;;;;;;19.45;62.19;97157.47;4911770;28;20639;-80
2023/10/13 01:57:13;;;;;;;8.23;5.72;;;;;;;19.52;62.43;97162.28;4897274;28;20170;-80
2023/10/13 01:59:44;;;;;;;10.82;6.45;;;;;;;19.49;61.79;97157.63;4924846;28;20220;-79
2023/10/13 02:02:12;;;;;;;9.35;6.07;;;;;;;19.41;61.99;97148.56;4907172;28;20698;-79
2023/10/13 02:04:48;;;;;;;7.93;5.28;;;;;;;19.42;62.28;97153.56;4908224;28;20364;-80
2023/10/13 02:07:17;;;;;;;10.48;5.68;;;;;;;19.38;62.51;97152.63;4910874;28;20235;-80
2023/10/13 02:09:42;;;;;;;11.50;5.65;;;;;;;19.31;62.59;97146.19;4899817;28;20155;-81
2023/10/13 02:12:09;;;;;;;8.43;5.22;;;;;;;19.32;62.70;97147.75;4894593;28;20319;-80
2023/10/13 02:14:36;;;;;;;9.27;5.32;;;;;;;19.33;62.36;97144.81;4939734;28;20196;-80
2023/10/13 02:17:16;;;;;;;10.45;5.15;;;;;;;19.28;62.42;97148.34;4891399;28;20208;-80
2023/10/13 02:19:45;;;;;;;10.07;5.43;;;;;;;19.30;62.82;97148.06;4916351;28;20551;-80
2023/10/13 02:22:29;;;;;;;11.48;5.75;;;;;;;19.25;62.58;97143.66;4910597;28;20357;-80
2023/10/13 02:25:01;;;;;;;9.25;5.10;;;;;;;19.25;62.60;97138.38;4912439;28;20324;-80
2023/10/13 02:27:27;;;;;;;7.82;5.22;;;;;;;19.24;62.75;97144.78;4923025;28;20301;-80
2023/10/13 02:29:58;;;;;;;8.45;5.43;;;;;;;19.22;62.91;97135.56;4928303;28;20286;-79
2023/10/13 02:32:24;;;;;;;7.78;5.45;;;;;;;19.21;63.18;97137.44;4932292;28;20297;-80
2023/10/13 02:34:49;;;;;;;9.55;5.13;;;;;;;19.18;63.06;97126.72;4943557;28;20279;-79
2023/10/13 02:37:19;;;;;;;8.05;4.90;;;;;;;19.21;62.89;97129.53;4927101;28;20204;-80
2023/10/13 02:39:45;;;;;;;11.18;5.65;;;;;;;19.20;63.02;97120.03;4906353;28;20639;-80
2023/10/13 02:42:23;;;;;;;6.70;4.53;;;;;;;19.24;63.22;97120.22;4910060;28;20209;-80
2023/10/13 02:44:49;;;;;;;8.35;5.50;;;;;;;19.19;63.18;97107.94;4911822;28;20337;-80
2023/10/13 02:47:14;;;;;;;10.48;5.10;;;;;;;19.20;63.09;97106.06;4941535;28;20193;-82
2023/10/13 02:49:43;;;;;;;7.60;4.88;;;;;;;19.24;62.81;97110.44;4915165;28;20166;-80
2023/10/13 02:52:09;;;;;;;9.77;5.60;;;;;;;19.23;62.74;97113.38;4909387;28;20259;-80
2023/10/13 02:54:40;;;;;;;7.88;5.45;;;;;;;19.29;62.98;97117.44;4920615;28;20125;-79
2023/10/13 02:57:06;;;;;;;7.22;4.78;;;;;;;19.23;63.18;97108.88;4894075;28;20249;-79
2023/10/13 02:59:46;;;;;;;9.35;5.78;;;;;;;19.23;62.99;97105.47;4916693;28;20725;-80
2023/10/13 03:02:25;;;;;;;8.68;5.47;;;;;;;19.25;62.91;97112.00;4893665;28;20157;-80
2023/10/13 03:05:04;;;;;;;9.75;4.88;;;;;;;19.23;63.57;97100.97;4916749;28;20267;-80
2023/10/13 03:07:31;;;;;;;12.70;5.97;;;;;;;19.15;63.39;97101.69;4925668;28;20197;-80
2023/10/13 03:09:59;;;;;;;9.02;5.80;;;;;;;19.24;63.29;97107.00;4893886;28;20239;-80
2023/10/13 03:12:26;;;;;;;6.57;4.90;;;;;;;19.24;63.62;97110.44;4909863;28;20155;-80
2023/10/13 03:14:58;;;;;;;11.32;6.07;;;;;;;19.23;63.90;97106.25;4904431;28;20217;-81
2023/10/13 03:17:35;;;;;;;8.70;5.70;;;;;;;19.29;63.66;97106.88;4892949;28;20345;-80
2023/10/13 03:20:01;;;;;;;8.38;5.72;;;;;;;19.35;63.52;97100.41;4925346;28;20173;-80
2023/10/13 03:22:32;;;;;;;7.22;5.13;;;;;;;19.33;64.28;97089.38;4924798;28;20269;-80
2023/10/13 03:25:06;;;;;;;9.10;5.32;;;;;;;19.35;64.28;97078.50;4908710;28;20279;-80
2023/10/13 03:28:00;;;;;;;8.10;4.95;;;;;;;19.37;64.13;97081.63;4902569;28;20289;-79
2023/10/13 03:30:35;;;;;;;6.75;4.82;;;;;;;19.41;63.71;97066.72;4934758;28;20161;-80
2023/10/13 03:33:09;;;;;;;8.32;4.97;;;;;;;19.48;64.38;97071.56;4919717;28;20426;-79
2023/10/13 03:35:41;;;;;;;9.63;4.97;;;;;;;19.48;63.20;97061.78;4935989;28;20267;-80
2023/10/13 03:38:18;;;;;;;9.55;5.47;;;;;;;19.45;63.99;97055.25;4939107;28;20282;-80
2023/10/13 03:41:19;;;;;;;5.82;4.50;;;;;;;19.57;63.58;97061.81;4905105;28;20175;-80
2023/10/13 03:43:45;;;;;;;8.20;5.13;;;;;;;19.52;63.41;97056.66;4898102;28;20673;-80
2023/10/13 03:46:10;;;;;;;9.40;5.90;;;;;;;19.41;63.28;97054.28;4912608;28;20266;-80
2023/10/13 03:48:55;;;;;;;11.18;5.35;;;;;;;19.54;63.51;97057.16;4893727;28;20228;-80
2023/10/13 03:51:21;;;;;;;7.50;4.80;;;;;;;19.56;63.36;97053.13;4900851;28;20590;-79
2023/10/13 03:53:52;;;;;;;7.93;4.95;;;;;;;19.58;62.56;97056.22;4906067;28;20220;-80
2023/10/13 03:56:28;;;;;;;10.85;5.43;;;;;;;19.56;63.08;97053.13;4947469;28;20284;-79
2023/10/13 03:58:57;;;;;;;10.07;5.60;;;;;;;19.54;63.16;97049.25;4915031;28;20187;-79
2023/10/13 04:01:34;;;;;;;9.93;5.43;;;;;;;19.62;63.12;97051.91;4923523;28;20177;-80
2023/10/13 04:04:04;;;;;;;7.75;4.65;;;;;;;19.52;62.10;97044.25;4926188;28;20650;-79
2023/10/13 04:17:27;;;;;;;7.10;5.30;;;;;;;19.61;61.62;97041.66;4910829;28;20862;-80
2023/10/13 04:36:14;;;;;;;7.43;4.63;;;;;;;19.51;61.35;97044.56;4924820;28;20209;-80
2023/10/13 04:41:32;;;;;;;8.35;4.93;;;;;;;19.26;61.59;97039.66;4938014;28;20297;-80
2023/10/13 04:49:27;;;;;;;11.73;5.13;;;;;;;19.08;61.73;97030.09;4955082;28;20683;-79
2023/10/13 04:52:00;;;;;;;7.18;4.97;;;;;;;19.06;62.43;97019.81;4923095;28;20709;-80
2023/10/13 04:54:33;;;;;;;9.15;5.43;;;;;;;18.94;62.22;97009.06;4910484;28;20200;-79
2023/10/13 04:57:23;;;;;;;9.73;5.30;;;;;;;19.01;62.66;97008.63;4928956;28;20181;-79
2023/10/13 05:05:45;;;;;;;8.38;5.28;;;;;;;19.07;62.15;96994.22;4912517;28;20236;-80
2023/10/13 06:29:33;;;;;;;7.15;5.70;;;;;;;20.19;59.09;96992.19;4917959;28;20715;-80
2023/10/13 06:32:01;;;;;;;6.57;5.38;;;;;;;20.09;59.11;96982.69;4926231;28;20099;-80
2023/10/13 06:34:45;;;;;;;9.38;5.70;;;;;;;20.32;58.57;96988.59;4916382;28;20167;-79
2023/10/13 06:37:22;;;;;;;8.60;6.53;;;;;;;20.43;58.18;96989.06;4921006;28;20679;-79
2023/10/13 06:40:06;;;;;;;7.13;5.50;;;;;;;20.40;59.06;96995.75;4894503;28;20669;-79
2023/10/13 06:42:34;;;;;;;8.98;5.88;;;;;;;20.42;58.68;96986.72;4937024;28;20373;-78
2023/10/13 06:45:03;;;;;;;9.52;6.00;;;;;;;20.55;58.50;96991.06;4920947;28;20224;-78
2023/10/13 06:47:28;;;;;;;8.63;5.68;;;;;;;20.69;58.12;96996.22;4894125;28;20180;-80
2023/10/13 06:49:56;;;;;;;8.32;6.18;;;;;;;20.74;57.91;97003.97;4909580;28;20583;-80
2023/10/13 06:52:29;;;;;;;9.55;6.25;;;;;;;20.73;57.69;97005.88;4907536;28;20192;-79
2023/10/13 06:54:55;;;;;;;7.15;6.07;;;;;;;20.83;58.27;97007.38;4921682;28;20204;-80
2023/10/13 06:57:21;;;;;;;9.43;5.75;;;;;;;20.89;57.61;97005.38;4920611;28;20289;-81
2023/10/13 06:59:47;;;;;;;6.72;5.95;;;;;;;20.86;57.33;96985.59;4922510;28;20280;-79
2023/10/13 07:02:21;;;;;;;7.72;6.13;;;;;;;21.04;57.24;96996.91;4907902;28;20389;-80
2023/10/13 07:04:56;;;;;;;6.95;5.63;;;;;;;21.11;56.65;96991.91;4905465;28;20182;-80
2023/10/13 07:07:23;;;;;;;8.20;6.28;;;;;;;21.21;56.76;96989.97;4923560;28;20252;-80
2023/10/13 07:09:55;;;;;;;7.93;5.82;;;;;;;21.35;56.74;96990.53;4924883;28;20722;-80
2023/10/13 07:12:26;;;;;;;8.52;5.70;;;;;;;21.56;55.71;96998.56;4915615;28;20212;-80
2023/10/13 07:14:52;;;;;;;10.43;5.72;;;;;;;21.49;56.65;97007.03;4921124;28;20347;-78
2023/10/13 07:17:24;;;;;;;8.07;6.10;;;;;;;21.76;54.78;96994.38;4923760;28;20205;-79
2023/10/13 07:19:53;;;;;;;8.43;5.95;;;;;;;21.90;55.06;96988.88;4906577;28;20647;-79
2023/10/13 07:22:19;;;;;;;6.60;5.45;;;;;;;21.89;55.02;96993.38;4924774;28;20193;-79
2023/10/13 07:24:48;;;;;;;8.75;6.13;;;;;;;22.01;54.54;97007.81;4924759;28;20219;-79
2023/10/13 07:27:22;;;;;;;9.20;5.68;;;;;;;22.10;54.87;97008.50;4919959;28;20188;-79
2023/10/13 07:29:55;;;;;;;8.00;5.88;;;;;;;22.14;54.99;96996.19;4929044;28;20166;-79
2023/10/13 07:32:25;;;;;;;9.25;5.88;;;;;;;22.37;53.70;97003.81;4921829;28;20249;-79
2023/10/13 07:34:55;;;;;;;7.97;5.47;;;;;;;22.53;53.89;97003.97;4897671;28;20295;-78
2023/10/13 07:37:25;;;;;;;6.20;5.60;;;;;;;22.63;52.65;97008.88;4910237;28;20276;-80
2023/10/13 07:39:57;;;;;;;11.00;5.60;;;;;;;22.47;53.03;96998.13;4908860;28;20387;-79
2023/10/13 07:42:26;;;;;;;8.10;5.82;;;;;;;22.66;53.35;96999.50;4915114;28;20233;-78
2023/10/13 07:44:55;;;;;;;6.95;5.22;;;;;;;22.86;52.54;97011.16;4933525;28;20454;-79
2023/10/13 07:47:24;;;;;;;7.35;5.82;;;;;;;22.92;52.59;97010.63;4922914;28;20341;-79
2023/10/13 07:49:50;;;;;;;8.23;6.32;;;;;;;22.85;52.93;97014.94;4888586;28;20189;-78
2023/10/13 07:57:29;;;;;;;8.25;6.25;;;;;;;22.30;53.69;97007.00;4929433;28;20255;-79
2023/10/13 08:00:11;;;;;;;7.85;6.05;;;;;;;22.33;54.16;97010.84;4907726;28;20556;-78
2023/10/13 08:02:48;;;;;;;7.82;5.50;;;;;;;22.22;54.65;97005.91;4892645;28;20281;-79
2023/10/13 08:05:24;;;;;;;8.23;6.03;;;;;;;22.13;54.77;96991.19;4908978;28;20650;-79
2023/10/13 08:07:52;;;;;;;9.38;6.40;;;;;;;22.07;55.18;96998.56;4906962;28;20209;-79
2023/10/13 08:10:18;;;;;;;8.32;5.88;;;;;;;21.99;55.92;97002.06;4937355;28;20206;-79
2023/10/13 08:12:44;;;;;;;8.55;5.80;;;;;;;21.88;56.76;96991.03;4889270;28;20201;-79
2023/10/13 08:15:20;;;;;;;6.18;5.57;;;;;;;21.94;56.28;96995.06;4891392;28;20250;-79
2023/10/13 08:17:46;;;;;;;9.45;6.65;;;;;;;22.06;55.76;96989.06;4934722;28;20212;-79
2023/10/13 08:20:12;;;;;;;7.38;6.10;;;;;;;22.03;55.88;96979.09;4911941;28;20188;-79
2023/10/13 08:22:38;;;;;;;6.63;5.45;;;;;;;22.18;54.62;96973.19;4912111;28;20244;-79
2023/10/13 08:26:13;;;;;;;8.10;5.53;;;;;;;22.21;55.37;96987.72;4909595;28;20136;-80
2023/10/13 08:30:52;;;;;;;8.98;5.70;;;;;;;22.06;56.20;96981.09;4946435;28;20222;-79
2023/10/13 08:33:18;;;;;;;8.85;5.78;;;;;;;22.10;54.86;96987.31;4911780;28;20675;-79
2023/10/13 08:38:43;;;;;;;;;;;;;;;22.70;54.98;96979.16;4924253;28;20296;-79
2023/10/13 08:43:53;;;;;;;7.53;6.57;;;;;;;22.76;54.09;96977.84;4926889;28;20264;-79
2023/10/13 08:46:26;;;;;;;6.75;5.63;;;;;;;22.71;54.00;96970.09;4923801;28;20717;-79
2023/10/13 08:49:15;;;;;;;6.15;5.53;;;;;;;22.89;53.57;96973.34;4909198;28;20187;-78
2023/10/13 08:52:05;;;;;;;8.93;6.22;;;;;;;22.89;53.95;96963.47;4927624;28;20714;-79
2023/10/13 08:54:39;;;;;;;8.35;5.47;;;;;;;22.86;53.65;96955.41;4924247;28;20513;-79
2023/10/13 08:57:29;;;;;;;8.40;5.70;;;;;;;22.94;53.73;96957.97;4891349;28;20355;-79
2023/10/13 08:59:55;;;;;;;7.38;5.60;;;;;;;22.91;53.55;96950.69;4921204;28;20598;-79
2023/10/13 09:02:22;;;;;;;8.07;6.20;;;;;;;23.05;53.93;96953.00;4915452;28;20208;-79
2023/10/13 09:04:59;;;;;;;8.70;5.97;;;;;;;23.21;53.19;96947.84;4921904;28;20289;-79
2023/10/13 09:07:25;;;;;;;8.68;6.72;;;;;;;23.29;54.15;96948.84;4918023;28;20280;-79
2023/10/13 09:12:25;;;;;;;7.10;5.15;;;;;;;23.50;52.39;96935.41;4928525;28;20672;-79
2023/10/13 09:14:58;;;;;;;7.25;5.97;;;;;;;23.58;51.52;96928.41;4929225;28;20694;-79
2023/10/13 09:17:35;;;;;;;7.18;5.97;;;;;;;23.87;51.08;96932.69;4916628;28;20280;-80
2023/10/13 09:25:36;;;;;;;7.78;6.38;;;;;;;23.80;50.40;96933.25;4908425;28;20167;-79
2023/10/13 09:28:15;;;;;;;6.95;5.35;;;;;;;24.22;50.35;96934.81;4925081;28;20191;-79
2023/10/13 09:30:48;;;;;;;6.78;5.50;;;;;;;24.26;49.42;96927.69;4923920;28;20193;-78
2023/10/13 09:33:20;;;;;;;8.85;6.20;;;;;;;24.40;49.63;96936.06;4909829;28;20216;-79
2023/10/13 09:35:49;;;;;;;7.55;5.10;;;;;;;24.09;49.15;96926.88;4892583;28;20190;-78
2023/10/13 09:38:18;;;;;;;5.80;4.97;;;;;;;24.60;48.69;96936.19;4886627;28;20196;-79
2023/10/13 09:40:50;;;;;;;8.80;5.50;;;;;;;24.73;48.79;96947.53;4921250;28;20592;-79
2023/10/13 09:43:21;;;;;;;7.05;5.70;;;;;;;25.09;48.50;96943.84;4892979;28;20231;-80
2023/10/13 09:46:07;;;;;;;7.70;5.55;;;;;;;25.13;48.23;96926.06;4905446;28;20183;-79
2023/10/13 09:48:34;;;;;;;5.53;5.03;;;;;;;25.54;47.14;96926.59;4907882;28;20225;-79
2023/10/13 09:51:09;;;;;;;8.32;5.40;;;;;;;26.02;46.60;96923.78;4910311;28;20700;-79
2023/10/13 09:53:37;;;;;;;6.88;5.30;;;;;;;26.12;45.45;96923.22;4927781;28;20284;-79
2023/10/13 09:56:19;;;;;;;5.38;4.80;;;;;;;26.59;45.39;96931.31;4927640;28;20194;-79
2023/10/13 09:59:14;;;;;;;7.03;5.95;;;;;;;26.75;44.08;96926.66;4908123;28;20185;-80
2023/10/13 10:01:50;;;;;;;7.82;5.10;;;;;;;26.93;43.46;96926.16;4935935;28;20299;-80
2023/10/13 10:04:20;;;;;;;6.57;5.05;;;;;;;27.20;43.46;96932.31;4892204;28;20220;-80
2023/10/13 10:06:56;;;;;;;5.00;4.43;;;;;;;27.48;42.89;96925.84;4913023;28;20214;-79
2023/10/13 10:09:39;;;;;;;8.15;4.93;;;;;;;27.67;42.04;96930.28;4907611;28;20722;-80
2023/10/13 10:12:40;;;;;;;5.95;4.65;;;;;;;27.64;41.94;96931.78;4884021;28;20193;-79
2023/10/13 10:15:28;;;;;;;6.28;5.10;;;;;;;27.75;40.53;96932.69;4901052;28;20647;-80
2023/10/13 10:17:54;;;;;;;7.50;5.18;;;;;;;27.65;40.79;96917.28;4908257;28;20312;-79
2023/10/13 10:20:39;;;;;;;5.47;4.72;;;;;;;27.58;40.23;96917.19;4917743;28;20228;-79
2023/10/13 10:23:05;;;;;;;4.95;4.45;;;;;;;27.48;40.47;96918.59;4914451;28;20763;-80
2023/10/13 10:25:37;;;;;;;5.40;4.88;;;;;;;27.63;41.09;96914.22;4888752;28;20429;-79
2023/10/13 10:28:07;;;;;;;6.72;4.90;;;;;;;27.72;39.67;96911.25;4924300;28;20684;-79
2023/10/13 10:30:35;;;;;;;7.10;5.13;;;;;;;27.87;39.81;96906.84;4925183;28;20700;-79
2023/10/13 10:33:07;;;;;;;7.63;5.32;;;;;;;28.07;40.89;96910.94;4926716;28;20205;-79
2023/10/13 10:35:33;;;;;;;5.03;4.50;;;;;;;28.03;39.84;96910.09;4896640;28;20210;-79
2023/10/13 10:38:24;;;;;;;6.47;4.70;;;;;;;27.99;39.51;96898.59;4901882;28;20172;-79
2023/10/13 10:41:04;;;;;;;6.13;4.75;;;;;;;28.02;39.37;96900.56;4910983;28;20643;-79
2023/10/13 10:43:41;;;;;;;6.00;4.70;;;;;;;28.22;38.42;96911.84;4907356;28;20236;-78
2023/10/13 10:46:13;;;;;;;7.55;4.43;;;;;;;28.40;38.90;96899.41;4894054;28;21408;-79
2023/10/13 10:48:48;;;;;;;6.10;4.97;;;;;;;28.33;38.40;96896.66;4934191;28;20283;-79
2023/10/13 10:51:24;;;;;;;5.50;4.97;;;;;;;28.61;37.86;96900.75;4927503;28;20247;-79
2023/10/13 10:53:51;;;;;;;6.93;4.93;;;;;;;28.59;38.46;96889.66;4891725;28;20752;-79
2023/10/13 10:56:20;;;;;;;5.43;4.80;;;;;;;28.75;39.10;96887.50;4892654;28;20174;-78
2023/10/13 10:58:54;;;;;;;4.75;4.35;;;;;;;29.12;37.79;96883.16;4910511;28;20102;-79
2023/10/13 11:01:38;;;;;;;6.25;5.10;;;;;;;29.42;36.58;96872.22;4925113;28;20216;-79
2023/10/13 11:04:08;;;;;;;6.53;5.15;;;;;;;29.42;36.82;96866.09;4909502;28;20092;-80
2023/10/13 11:06:42;;;;;;;5.25;4.50;;;;;;;29.36;36.45;96872.97;4912498;28;20248;-79
2023/10/13 11:09:18;;;;;;;5.85;5.25;;;;;;;29.66;35.23;96872.72;4909879;28;20201;-79
2023/10/13 11:11:52;;;;;;;6.18;4.90;;;;;;;30.05;35.83;96858.69;4930484;28;20171;-79
2023/10/13 11:14:26;;;;;;;7.28;4.55;;;;;;;30.31;33.48;96859.47;4909925;28;20289;-79
2023/10/13 11:16:59;;;;;;;5.07;4.68;;;;;;;30.94;33.40;96847.22;4917278;28;20344;-79
2023/10/13 11:19:39;;;;;;;6.13;4.72;;;;;;;31.59;32.69;96846.31;4925314;28;20118;-79
2023/10/13 11:22:42;;;;;;;5.63;4.28;;;;;;;32.04;32.40;96846.44;4892738;28;20208;-79
2023/10/13 11:25:14;;;;;;;5.45;4.65;;;;;;;31.78;33.13;96839.69;4896007;28;20170;-79
2023/10/13 11:30:14;;;;;;;5.13;4.40;;;;;;;32.25;32.35;96832.09;4899435;28;20256;-80
2023/10/13 11:32:43;;;;;;;5.22;4.68;;;;;;;32.37;31.41;96836.25;4907794;28;20336;-79
2023/10/13 11:35:20;;;;;;;6.95;4.20;;;;;;;32.76;30.42;96824.38;4888156;28;20174;-80
2023/10/13 11:37:55;;;;;;;6.90;4.78;;;;;;;32.90;30.18;96820.78;4911237;28;20682;-80
2023/10/13 11:40:43;;;;;;;6.13;4.97;;;;;;;32.81;29.68;96826.66;4910341;28;20161;-80
2023/10/13 11:43:13;;;;;;;5.07;4.68;;;;;;;32.50;28.89;96821.13;4943886;28;20198;-79
2023/10/13 11:45:53;;;;;;;5.47;4.93;;;;;;;33.02;29.79;96807.56;4935902;28;20717;-79
2023/10/13 11:48:33;;;;;;;4.63;4.22;;;;;;;32.43;29.35;96811.16;4893904;28;20151;-81
2023/10/13 11:50:59;;;;;;;7.13;4.30;;;;;;;32.93;28.98;96796.47;4923528;28;20751;-80
2023/10/13 11:53:27;;;;;;;4.53;4.13;;;;;;;33.54;29.05;96803.88;4925265;28;20270;-80
2023/10/13 11:55:52;;;;;;;5.53;4.45;;;;;;;32.83;29.58;96800.03;4926004;28;20225;-80
2023/10/13 11:58:18;;;;;;;7.53;4.60;;;;;;;33.04;28.18;96783.66;4909687;28;20221;-79
2023/10/13 12:06:35;;;;;;;7.30;4.32;;;;;;;33.05;27.14;96792.50;4912264;28;20212;-79
2023/10/13 12:11:44;;;;;;;4.50;4.15;;;;;;;32.19;29.76;96782.50;4904809;28;20595;-79
2023/10/13 12:14:21;;;;;;;4.85;4.10;;;;;;;31.79;29.62;96788.13;4892625;28;20203;-79
2023/10/13 12:16:52;;;;;;;6.60;4.75;;;;;;;31.39;30.62;96786.78;4877024;28;20233;-79
2023/10/13 12:19:28;;;;;;;5.53;4.40;;;;;;;31.47;29.97;96778.28;4906584;28;20217;-79
2023/10/13 12:21:55;;;;;;;4.72;4.32;;;;;;;31.13;30.33;96778.81;4907884;28;20204;-79
2023/10/13 12:30:07;;;;;;;5.05;4.55;;;;;;;30.24;33.33;96764.31;4907681;28;20644;-79
2023/10/13 12:32:34;;;;;;;5.68;4.47;;;;;;;30.00;33.74;96752.41;4894841;28;20671;-78
2023/10/13 12:53:55;;;;;;;6.82;4.07;;;;;;;28.81;33.55;96740.53;4884573;28;20200;-78
2023/10/13 12:56:28;;;;;;;4.88;4.38;;;;;;;28.79;34.82;96739.38;4913589;28;20208;-79
2023/10/13 12:58:54;;;;;;;6.13;4.25;;;;;;;28.82;33.75;96727.91;4913335;28;20558;-79
2023/10/13 13:01:32;;;;;;;5.75;3.90;;;;;;;28.73;34.76;96730.94;4892827;28;20206;-80
2023/10/13 13:03:58;;;;;;;4.07;3.70;;;;;;;28.58;34.49;96728.19;4922359;28;20617;-79
2023/10/13 13:06:29;;;;;;;6.43;4.25;;;;;;;28.69;35.36;96730.91;4909401;28;20184;-79
2023/10/13 13:08:57;;;;;;;5.57;4.47;;;;;;;28.18;36.26;96707.59;4911527;28;20207;-78
2023/10/13 13:11:22;;;;;;;5.65;3.83;;;;;;;28.06;34.94;96710.56;4943375;28;20199;-78
2023/10/13 13:13:48;;;;;;;4.40;3.97;;;;;;;28.12;35.85;96714.41;4911007;28;20681;-79
2023/10/13 13:16:14;;;;;;;5.95;4.30;;;;;;;28.18;36.13;96711.03;4924282;28;20283;-79
2023/10/13 13:18:39;;;;;;;6.32;4.25;;;;;;;28.29;36.24;96703.09;4907647;28;20208;-79
2023/10/13 13:21:11;;;;;;;4.45;4.05;;;;;;;28.33;35.94;96695.09;4924324;28;20251;-78
2023/10/13 13:23:37;;;;;;;5.15;3.67;;;;;;;28.56;35.52;96694.84;4929257;28;20740;-79
2023/10/13 13:26:04;;;;;;;5.20;4.32;;;;;;;28.29;33.15;96696.94;4926277;28;20212;-78
2023/10/13 13:28:37;;;;;;;4.43;4.03;;;;;;;28.66;34.60;96690.69;4921397;28;20200;-79
2023/10/13 13:31:07;;;;;;;5.53;3.90;;;;;;;28.75;34.38;96691.13;4911319;28;20208;-79
2023/10/13 13:33:38;;;;;;;5.50;3.75;;;;;;;28.68;34.38;96685.72;4916678;28;20200;-79
2023/10/13 13:36:04;;;;;;;5.80;4.07;;;;;;;28.78;33.79;96679.66;4929868;28;20560;-78
2023/10/13 13:38:31;;;;;;;6.07;4.00;;;;;;;28.78;33.79;96682.34;4926683;28;20173;-79
2023/10/13 13:40:58;;;;;;;7.70;3.53;;;;;;;28.77;34.11;96672.75;4910860;28;20287;-79
2023/10/13 13:43:50;;;;;;;6.90;3.85;;;;;;;28.73;33.96;96671.97;4891609;28;20141;-78
2023/10/13 13:46:24;;;;;;;8.35;3.47;;;;;;;28.54;33.16;96671.09;4924492;28;20631;-79
2023/10/13 13:48:59;;;;;;;4.68;3.10;;;;;;;28.63;31.44;96672.69;4914782;28;20694;-78
2023/10/13 13:51:28;;;;;;;5.97;3.42;;;;;;;28.59;31.78;96661.97;4922151;28;20527;-78
2023/10/13 13:53:55;;;;;;;6.07;3.85;;;;;;;28.76;31.17;96663.19;4888541;28;20202;-78
2023/10/13 13:56:20;;;;;;;10.30;3.95;;;;;;;28.58;32.00;96658.53;4917798;28;20248;-78
2023/10/13 13:59:07;;;;;;;8.38;3.22;;;;;;;28.65;31.76;96649.75;4925822;28;20280;-78
2023/10/13 14:01:34;;;;;;;6.22;3.40;;;;;;;28.66;30.41;96650.53;4909950;28;20548;-78
2023/10/13 14:04:03;;;;;;;5.03;4.05;;;;;;;28.68;30.65;96642.88;4903564;28;20200;-79
2023/10/13 14:06:29;;;;;;;5.60;3.20;;;;;;;28.76;31.13;96634.47;4908044;28;20263;-78
2023/10/13 14:08:56;;;;;;;3.63;3.25;;;;;;;28.74;31.34;96636.03;4909417;28;20723;-79
2023/10/13 14:13:58;;;;;;;5.55;3.75;;;;;;;28.69;30.46;96628.34;4925436;28;20633;-79
2023/10/13 14:16:23;;;;;;;4.03;2.70;;;;;;;28.63;30.44;96625.25;4926371;28;20267;-78
2023/10/13 14:18:52;;;;;;;3.63;3.17;;;;;;;28.67;30.56;96620.69;4907421;28;20296;-78
2023/10/13 14:21:24;;;;;;;5.13;3.08;;;;;;;28.65;30.78;96611.47;4940321;28;20334;-78
2023/10/13 14:23:54;;;;;;;5.25;3.45;;;;;;;28.55;30.67;96603.03;4924535;28;20162;-78
2023/10/13 14:26:21;;;;;;;3.92;3.25;;;;;;;28.46;30.92;96607.91;4926359;28;20659;-78
2023/10/13 14:29:07;;;;;;;3.70;3.40;;;;;;;28.52;30.22;96598.38;4926660;28;20684;-80
2023/10/13 14:31:34;;;;;;;4.50;3.25;;;;;;;28.47;30.63;96595.31;4925071;28;20264;-79
2023/10/13 14:33:59;;;;;;;6.00;3.17;;;;;;;28.46;31.03;96599.88;4890453;28;20182;-79
2023/10/13 14:36:37;;;;;;;5.68;2.90;;;;;;;28.31;31.66;96591.03;4893923;28;20235;-79
2023/10/13 14:39:09;;;;;;;4.80;2.80;;;;;;;28.23;31.50;96589.47;4896128;28;20309;-79
2023/10/13 14:41:35;;;;;;;3.88;3.00;;;;;;;27.89;31.31;96583.50;4926728;28;20678;-80
2023/10/13 14:44:05;;;;;;;4.93;2.97;;;;;;;28.00;30.79;96579.00;4926122;28;20684;-80
2023/10/13 14:46:30;;;;;;;5.95;3.35;;;;;;;28.00;30.07;96582.47;4892230;28;20170;-80
2023/10/13 14:48:56;;;;;;;6.97;3.53;;;;;;;28.18;29.45;96573.75;4923749;28;20190;-80
2023/10/13 14:51:21;;;;;;;5.05;3.35;;;;;;;28.15;29.84;96575.25;4889775;28;20316;-80
2023/10/13 14:53:47;;;;;;;3.38;2.60;;;;;;;28.05;30.33;96569.84;4905556;28;20189;-80
2023/10/13 14:56:16;;;;;;;6.63;3.17;;;;;;;28.02;30.19;96566.03;4941917;28;20671;-79
2023/10/13 14:58:44;;;;;;;4.93;3.05;;;;;;;27.91;29.46;96567.84;4923173;28;20174;-80
2023/10/13 15:01:15;;;;;;;5.78;3.05;;;;;;;27.86;30.46;96546.78;4897452;28;20299;-79